Time;durP1;ratioP1;P1;durP2;ratioP2;P2;SDS_P1;SDS_P2;PMS_P1;PMS_P2;Temp;Humidity;BMP_temperature;BMP_pressure;BME280_temperature;BME280_humidity;BME280_pressure;Samples;Min_cycle;Max_cycle;Signal;HPM_P1;HPM_P2
2022/06/01 00:01:30;;;;;;;29.27;26.33;;;13.70;86.00;;;;;;5049286;28;20036;-72
2022/06/01 00:03:55;;;;;;;31.35;27.95;;;13.70;86.20;;;;;;5048895;28;20025;-71
2022/06/01 00:06:21;;;;;;;35.10;31.30;;;13.70;86.20;;;;;;5049199;28;20333;-72
2022/06/01 00:08:47;;;;;;;33.40;29.90;;;13.60;86.20;;;;;;5048969;28;20017;-72
2022/06/01 00:11:13;;;;;;;32.50;29.15;;;13.60;86.30;;;;;;5049244;28;20353;-72
2022/06/01 00:13:40;;;;;;;33.15;29.65;;;13.50;86.50;;;;;;5049344;28;20363;-72
2022/06/01 00:16:07;;;;;;;37.42;33.35;;;13.50;86.60;;;;;;5049260;28;20105;-72
2022/06/01 00:18:34;;;;;;;34.35;30.85;;;13.50;86.80;;;;;;5047941;28;20039;-71
2022/06/01 00:20:59;;;;;;;34.80;31.25;;;13.50;86.80;;;;;;5048447;28;20035;-71
2022/06/01 00:23:28;;;;;;;38.40;34.50;;;13.50;87.00;;;;;;5047769;28;20013;-72
2022/06/01 00:25:53;;;;;;;32.65;29.33;;;13.50;87.20;;;;;;5047669;28;20559;-72
2022/06/01 00:28:19;;;;;;;35.90;32.30;;;13.40;87.20;;;;;;5048958;28;20100;-71
2022/06/01 00:30:47;;;;;;;37.78;33.88;;;13.40;87.90;;;;;;5048206;28;20099;-72
2022/06/01 00:33:12;;;;;;;34.65;31.15;;;13.30;87.40;;;;;;5047133;28;20550;-72
2022/06/01 00:35:39;;;;;;;35.55;32.03;;;13.30;87.50;;;;;;5049299;28;20104;-72
2022/06/01 00:38:05;;;;;;;40.03;35.78;;;13.20;87.80;;;;;;5049401;28;20061;-72
2022/06/01 00:40:31;;;;;;;38.58;34.50;;;13.10;88.10;;;;;;5050168;28;20414;-73
2022/06/01 00:43:01;;;;;;;38.65;34.65;;;13.10;88.40;;;;;;5048953;28;20023;-72
2022/06/01 00:45:31;;;;;;;38.22;34.30;;;13.10;88.50;;;;;;5047686;28;20023;-71
2022/06/01 00:47:57;;;;;;;38.80;34.88;;;13.10;88.60;;;;;;5048892;28;20031;-71
2022/06/01 00:50:33;;;;;;;40.85;36.33;;;13.20;88.70;;;;;;5047350;28;20036;-71
2022/06/01 00:53:08;;;;;;;35.92;32.20;;;13.10;88.50;;;;;;5057180;28;20025;-70
2022/06/01 00:55:42;;;;;;;40.17;35.67;;;13.10;88.60;;;;;;5048167;28;20086;-71
2022/06/01 00:58:14;;;;;;;40.30;36.10;;;13.10;88.90;;;;;;5047922;28;20128;-71
2022/06/01 01:00:41;;;;;;;41.13;36.95;;;13.00;88.90;;;;;;5048018;28;20033;-71
2022/06/01 01:03:10;;;;;;;38.83;34.83;;;13.10;89.20;;;;;;5046991;28;20025;-71
2022/06/01 01:05:39;;;;;;;41.25;36.78;;;13.10;89.90;;;;;;5047968;28;20024;-71
2022/06/01 01:08:05;;;;;;;37.38;33.75;;;13.00;89.60;;;;;;5048633;28;20043;-72
2022/06/01 01:10:32;;;;;;;37.92;34.03;;;13.00;89.10;;;;;;5047969;28;20333;-72
2022/06/01 01:13:01;;;;;;;38.95;35.08;;;13.00;89.40;;;;;;5048078;28;20098;-72
2022/06/01 01:15:40;;;;;;;40.25;36.10;;;13.00;89.60;;;;;;5048035;28;20028;-73
2022/06/01 01:18:11;;;;;;;33.55;30.23;;;13.00;89.60;;;;;;5046949;28;20039;-71
2022/06/01 01:20:45;;;;;;;37.15;33.45;;;13.00;89.60;;;;;;5047507;28;20025;-72
2022/06/01 01:23:29;;;;;;;40.60;36.47;;;13.00;89.90;;;;;;5048140;28;20009;-72
2022/06/01 01:25:55;;;;;;;40.15;35.47;;;13.00;90.00;;;;;;5036529;28;20021;-71
2022/06/01 01:28:20;;;;;;;41.38;37.10;;;13.00;90.10;;;;;;5048305;28;20025;-71
2022/06/01 01:30:55;;;;;;;32.55;29.23;;;12.90;90.40;;;;;;5047918;28;20380;-72
2022/06/01 01:33:24;;;;;;;35.50;31.70;;;12.90;90.20;;;;;;5048058;28;20077;-72
2022/06/01 01:35:53;;;;;;;36.35;32.55;;;12.90;90.30;;;;;;5042421;28;20111;-72
2022/06/01 01:38:35;;;;;;;28.05;25.13;;;12.90;90.10;;;;;;5048037;28;20033;-72
2022/06/01 01:41:24;;;;;;;30.67;27.38;;;12.90;89.90;;;;;;5046034;28;20021;-71
2022/06/01 01:43:59;;;;;;;32.05;28.35;;;13.00;89.50;;;;;;5046631;28;21479;-72
2022/06/01 01:46:27;;;;;;;34.63;29.55;;;13.00;90.00;;;;;;5047630;28;20082;-72
2022/06/01 01:48:53;;;;;;;33.50;29.80;;;13.10;89.60;;;;;;5048421;28;20852;-71
2022/06/01 01:51:21;;;;;;;34.90;29.90;;;13.10;89.60;;;;;;5047217;28;20087;-71
2022/06/01 01:53:47;;;;;;;32.78;29.30;;;13.20;89.30;;;;;;5050377;28;20037;-72
2022/06/01 01:56:28;;;;;;;31.45;28.13;;;13.30;89.10;;;;;;5051714;28;20029;-71
2022/06/01 01:59:24;;;;;;;32.25;28.80;;;13.30;89.00;;;;;;5052353;28;20044;-72
2022/06/01 02:01:58;;;;;;;30.05;26.83;;;13.30;88.90;;;;;;5049170;28;20475;-71
2022/06/01 02:07:41;;;;;;;33.87;30.03;;;13.30;88.70;;;;;;5011646;28;20038;-71
2022/06/01 02:12:52;;;;;;;33.25;29.85;;;13.30;88.90;;;;;;5051902;28;20096;-72
2022/06/01 02:15:33;;;;;;;34.22;30.67;;;13.40;89.30;;;;;;5049939;28;20379;-74
2022/06/01 02:18:05;;;;;;;35.10;31.48;;;13.40;89.10;;;;;;5050715;28;20040;-71
2022/06/01 02:20:44;;;;;;;30.95;27.38;;;13.40;89.00;;;;;;5051623;28;20112;-73
2022/06/01 02:23:13;;;;;;;30.83;27.55;;;13.40;88.90;;;;;;5050452;28;20548;-72
2022/06/01 02:25:40;;;;;;;32.13;28.50;;;13.40;88.80;;;;;;5051416;28;20039;-72
2022/06/01 02:28:07;;;;;;;22.30;19.90;;;13.40;88.50;;;;;;5051057;28;20107;-71
2022/06/01 02:30:39;;;;;;;31.15;27.23;;;13.30;88.20;;;;;;5051169;28;20024;-72
2022/06/01 02:33:10;;;;;;;26.13;23.40;;;13.30;88.50;;;;;;5047159;28;20045;-72
2022/06/01 02:35:39;;;;;;;25.83;23.02;;;13.20;88.70;;;;;;5050678;28;20028;-72
2022/06/01 02:38:14;;;;;;;23.42;20.15;;;13.20;88.80;;;;;;5051042;28;20541;-72
2022/06/01 02:40:40;;;;;;;21.10;18.88;;;13.10;88.50;;;;;;5050726;28;20032;-73
2022/06/01 02:43:09;;;;;;;22.80;18.23;;;13.10;88.20;;;;;;5051198;28;20017;-72
2022/06/01 02:45:35;;;;;;;21.08;18.88;;;13.10;88.40;;;;;;5050079;28;20063;-71
2022/06/01 02:48:02;;;;;;;23.70;19.25;;;13.10;88.50;;;;;;5050247;28;20037;-71
2022/06/01 02:50:30;;;;;;;21.52;17.98;;;13.20;88.40;;;;;;5051168;28;20017;-72
2022/06/01 02:52:57;;;;;;;18.80;16.88;;;13.20;88.30;;;;;;5050577;28;20021;-72
2022/06/01 02:55:24;;;;;;;22.00;19.67;;;13.20;88.60;;;;;;5051180;28;20590;-71
2022/06/01 02:57:51;;;;;;;19.25;17.23;;;13.20;88.60;;;;;;5051420;28;20033;-71
2022/06/01 03:00:20;;;;;;;19.30;16.00;;;13.20;88.30;;;;;;5053700;28;20092;-72
2022/06/01 03:02:52;;;;;;;17.80;16.00;;;13.20;88.20;;;;;;5054948;28;20089;-73
2022/06/01 03:05:25;;;;;;;18.25;15.60;;;13.20;88.10;;;;;;5050670;28;20128;-74
2022/06/01 03:07:51;;;;;;;19.52;15.93;;;13.10;87.90;;;;;;5050710;28;20021;-72
2022/06/01 03:10:18;;;;;;;16.77;14.95;;;13.00;88.10;;;;;;5050582;28;20021;-72
2022/06/01 03:12:44;;;;;;;13.35;11.40;;;13.00;88.40;;;;;;5049673;28;20020;-72
2022/06/01 03:15:12;;;;;;;15.30;12.52;;;13.00;88.20;;;;;;5050557;28;20356;-72
2022/06/01 03:17:37;;;;;;;14.20;11.68;;;13.00;88.00;;;;;;5049011;28;20522;-71
2022/06/01 03:20:08;;;;;;;13.95;12.45;;;13.00;87.90;;;;;;5049883;28;20081;-72
2022/06/01 03:22:38;;;;;;;;;;;13.00;87.80;;;;;;5050681;28;20025;-71
2022/06/01 03:25:07;;;;;;;16.40;13.93;;;13.00;87.70;;;;;;5049111;28;19905;-72
2022/06/01 03:27:33;;;;;;;20.23;14.65;;;13.00;87.80;;;;;;5050383;28;20025;-72
2022/06/01 03:29:59;;;;;;;12.45;10.18;;;13.00;88.00;;;;;;5050359;28;20032;-72
2022/06/01 03:32:25;;;;;;;17.27;14.48;;;13.00;88.10;;;;;;5048813;28;20029;-72
2022/06/01 03:34:50;;;;;;;16.08;13.98;;;12.90;87.80;;;;;;5050030;28;20084;-71
2022/06/01 03:37:16;;;;;;;16.85;14.55;;;12.90;88.00;;;;;;5049796;28;20095;-71
2022/06/01 03:39:42;;;;;;;21.00;14.32;;;12.90;88.00;;;;;;5049320;28;20476;-71
2022/06/01 03:42:08;;;;;;;16.27;13.82;;;12.90;88.00;;;;;;5048357;28;20036;-71
2022/06/01 03:47:17;;;;;;;16.60;14.55;;;12.90;88.00;;;;;;5049639;28;20060;-72
2022/06/01 03:49:43;;;;;;;14.30;12.90;;;12.80;88.20;;;;;;5049264;28;20438;-71
2022/06/01 03:52:10;;;;;;;17.80;13.75;;;12.80;88.30;;;;;;5049573;28;20079;-71
2022/06/01 03:54:39;;;;;;;16.33;13.98;;;12.80;88.50;;;;;;5049001;28;20029;-71
2022/06/01 03:57:05;;;;;;;15.75;14.15;;;12.80;88.70;;;;;;5048842;28;20131;-71
2022/06/01 03:59:31;;;;;;;18.40;15.82;;;12.80;88.80;;;;;;5049350;28;20021;-72
2022/06/01 04:02:03;;;;;;;20.42;15.85;;;12.80;88.90;;;;;;5047951;28;20091;-71
2022/06/01 04:04:29;;;;;;;19.38;16.10;;;12.80;89.00;;;;;;5049012;28;20614;-71
2022/06/01 04:06:54;;;;;;;15.43;13.43;;;12.80;88.80;;;;;;5049233;28;20090;-71
2022/06/01 04:09:20;;;;;;;17.35;14.93;;;12.80;88.70;;;;;;5049037;28;20792;-72
2022/06/01 04:11:46;;;;;;;17.05;14.43;;;12.80;88.40;;;;;;5049122;28;20029;-72
2022/06/01 04:14:11;;;;;;;15.70;13.95;;;12.80;88.50;;;;;;5047155;28;20032;-73
2022/06/01 04:16:37;;;;;;;16.30;13.07;;;12.90;88.70;;;;;;5047251;28;20096;-73
2022/06/01 04:19:03;;;;;;;22.52;16.33;;;12.90;88.60;;;;;;5047657;28;20013;-71
2022/06/01 04:21:33;;;;;;;18.80;15.45;;;12.90;89.00;;;;;;5049407;28;20013;-71
2022/06/01 04:24:01;;;;;;;18.52;16.10;;;13.00;89.10;;;;;;5049163;28;20021;-71
2022/06/01 04:26:27;;;;;;;17.90;15.68;;;13.00;89.00;;;;;;5048879;28;20013;-71
2022/06/01 04:28:54;;;;;;;21.88;17.67;;;13.00;88.90;;;;;;5048864;28;20036;-71
2022/06/01 04:31:20;;;;;;;20.15;17.92;;;13.10;88.80;;;;;;5048394;28;20033;-72
2022/06/01 04:33:46;;;;;;;18.23;16.13;;;13.10;88.60;;;;;;5048767;28;20044;-72
2022/06/01 04:36:11;;;;;;;20.70;18.40;;;13.20;88.60;;;;;;5048489;28;20028;-73
2022/06/01 04:38:37;;;;;;;20.08;17.27;;;13.20;88.40;;;;;;5028772;28;20040;-74
2022/06/01 04:41:03;;;;;;;19.48;17.40;;;13.10;88.40;;;;;;5046424;28;20078;-71
2022/06/01 04:43:28;;;;;;;22.08;19.75;;;13.10;88.60;;;;;;5048602;28;20025;-71
2022/06/01 04:45:56;;;;;;;24.88;20.92;;;13.10;88.90;;;;;;5044083;28;20040;-71
2022/06/01 04:48:23;;;;;;;28.25;25.00;;;13.20;89.40;;;;;;5048779;28;20425;-72
2022/06/01 04:50:49;;;;;;;26.30;22.95;;;13.20;89.20;;;;;;5048465;28;20472;-72
2022/06/01 04:53:16;;;;;;;27.85;24.90;;;13.30;88.90;;;;;;5047540;28;20048;-71
2022/06/01 04:55:44;;;;;;;29.98;26.75;;;13.30;88.80;;;;;;5048418;28;20165;-71
2022/06/01 04:58:11;;;;;;;30.98;27.67;;;13.40;88.80;;;;;;5048015;28;20606;-71
2022/06/01 05:00:37;;;;;;;32.03;28.58;;;13.40;88.50;;;;;;5047775;28;20021;-71
2022/06/01 05:03:03;;;;;;;26.67;23.80;;;13.40;88.20;;;;;;5048317;28;20029;-72
2022/06/01 05:05:30;;;;;;;33.45;29.02;;;13.40;88.30;;;;;;5048937;28;20017;-72
2022/06/01 05:07:55;;;;;;;29.58;26.45;;;13.40;88.60;;;;;;5048483;28;20027;-71
2022/06/01 05:10:22;;;;;;;33.17;29.38;;;13.40;87.20;;;;;;5048261;28;20033;-74
2022/06/01 05:12:51;;;;;;;31.83;28.42;;;13.30;88.00;;;;;;5048148;28;20040;-73
2022/06/01 05:15:17;;;;;;;32.75;29.23;;;13.30;88.40;;;;;;5047700;28;20455;-73
2022/06/01 05:17:43;;;;;;;35.75;29.67;;;13.20;88.70;;;;;;5048902;28;20047;-73
2022/06/01 05:20:09;;;;;;;36.50;32.45;;;13.10;88.90;;;;;;5049409;28;20108;-72
2022/06/01 05:22:38;;;;;;;34.20;30.30;;;13.10;89.20;;;;;;5050446;28;20025;-72
2022/06/01 05:25:06;;;;;;;39.30;32.13;;;13.10;89.50;;;;;;5049360;28;20043;-72
2022/06/01 05:27:32;;;;;;;36.05;30.98;;;13.10;89.70;;;;;;5047986;28;20083;-72
2022/06/01 05:29:58;;;;;;;34.60;30.90;;;13.10;89.70;;;;;;5050541;28;20475;-72
2022/06/01 05:32:24;;;;;;;35.85;30.23;;;13.10;89.40;;;;;;5052437;28;20086;-72
2022/06/01 05:34:50;;;;;;;33.35;29.83;;;13.10;89.50;;;;;;5052826;28;20048;-72
2022/06/01 05:37:15;;;;;;;32.53;29.05;;;13.20;89.70;;;;;;5051253;28;20109;-72
2022/06/01 05:39:41;;;;;;;32.47;27.60;;;13.20;89.70;;;;;;5052407;28;20049;-72
2022/06/01 05:42:07;;;;;;;33.17;26.67;;;13.30;89.70;;;;;;5051969;28;20124;-72
2022/06/01 05:44:33;;;;;;;31.33;27.05;;;13.40;89.40;;;;;;5051603;28;20403;-73
2022/06/01 05:47:01;;;;;;;26.30;23.17;;;13.40;89.00;;;;;;5052474;28;20013;-72
2022/06/01 05:49:27;;;;;;;30.42;27.17;;;13.50;88.80;;;;;;5052395;28;20029;-73
2022/06/01 05:51:53;;;;;;;29.83;26.30;;;13.60;88.50;;;;;;5050076;28;20095;-73
2022/06/01 05:54:19;;;;;;;31.38;27.70;;;13.60;88.50;;;;;;5050712;28;20017;-72
2022/06/01 05:56:45;;;;;;;30.77;26.45;;;13.60;88.10;;;;;;5052099;28;20452;-72
2022/06/01 05:59:11;;;;;;;26.40;23.58;;;13.70;88.70;;;;;;5052001;28;20032;-74
2022/06/01 06:01:38;;;;;;;27.50;24.25;;;13.70;87.20;;;;;;5052087;28;20505;-73
2022/06/01 06:04:04;;;;;;;23.35;20.52;;;13.80;87.90;;;;;;5050376;28;20031;-73
2022/06/01 06:06:30;;;;;;;20.13;17.48;;;13.90;87.10;;;;;;5044067;28;20243;-73
2022/06/01 06:09:02;;;;;;;21.77;18.65;;;13.90;86.10;;;;;;5051621;28;20025;-72
2022/06/01 06:11:36;;;;;;;20.38;17.15;;;14.00;87.10;;;;;;5051693;28;20063;-72
2022/06/01 06:14:03;;;;;;;26.55;17.27;;;14.10;86.50;;;;;;5049146;28;20099;-72
2022/06/01 06:16:35;;;;;;;17.88;14.90;;;14.20;86.30;;;;;;5041037;28;20567;-72
2022/06/01 06:19:02;;;;;;;17.65;15.13;;;14.20;84.40;;;;;;5042956;28;20487;-73
2022/06/01 06:21:29;;;;;;;20.02;14.10;;;14.30;84.00;;;;;;5042508;28;20028;-72
2022/06/01 06:24:02;;;;;;;17.75;14.77;;;14.40;83.40;;;;;;5044220;28;20336;-72
2022/06/01 06:26:28;;;;;;;16.17;12.63;;;14.40;84.10;;;;;;5041428;28;20013;-71
2022/06/01 06:28:54;;;;;;;16.83;14.73;;;14.60;83.80;;;;;;5042614;28;20515;-73
2022/06/01 06:31:19;;;;;;;18.23;14.88;;;14.60;83.90;;;;;;5043130;28;20393;-73
2022/06/01 06:33:45;;;;;;;17.58;14.95;;;14.70;82.40;;;;;;5043171;28;20037;-74
2022/06/01 06:36:13;;;;;;;13.05;10.15;;;14.60;83.30;;;;;;5050085;28;20446;-73
2022/06/01 06:38:39;;;;;;;13.48;12.07;;;14.70;81.80;;;;;;5049248;28;20041;-74
2022/06/01 06:41:06;;;;;;;15.88;14.18;;;14.70;82.00;;;;;;5042735;28;20025;-73
2022/06/01 06:43:34;;;;;;;14.63;11.98;;;14.70;82.20;;;;;;5033347;28;20021;-73
2022/06/01 06:46:10;;;;;;;19.83;13.35;;;14.80;81.90;;;;;;5049768;28;20542;-72
2022/06/01 06:48:36;;;;;;;18.77;14.90;;;14.90;81.10;;;;;;5047018;28;20029;-73
2022/06/01 06:51:02;;;;;;;15.32;12.00;;;15.00;80.70;;;;;;5044449;28;20063;-73
2022/06/01 06:53:28;;;;;;;16.17;13.35;;;15.10;80.90;;;;;;5044012;28;20061;-71
2022/06/01 06:55:54;;;;;;;15.15;13.35;;;15.20;82.10;;;;;;5041223;28;20036;-72
2022/06/01 06:58:20;;;;;;;15.38;11.52;;;15.30;82.40;;;;;;5038857;28;20377;-71
2022/06/01 07:00:47;;;;;;;13.73;12.15;;;15.40;80.80;;;;;;5040944;28;20055;-72
2022/06/01 07:03:13;;;;;;;18.05;13.50;;;15.60;80.40;;;;;;5047501;28;20029;-72
2022/06/01 07:08:24;;;;;;;13.45;11.38;;;15.70;79.40;;;;;;5050548;28;20047;-73
2022/06/01 07:10:51;;;;;;;14.95;10.27;;;15.80;77.40;;;;;;5049167;28;20017;-73
2022/06/01 07:13:16;;;;;;;12.32;9.25;;;15.80;78.30;;;;;;5045330;28;20044;-71
2022/06/01 07:15:42;;;;;;;9.60;8.57;;;15.90;78.60;;;;;;5049112;28;20463;-72
2022/06/01 07:18:08;;;;;;;13.63;9.20;;;15.90;77.60;;;;;;5049188;28;20127;-72
2022/06/01 07:20:34;;;;;;;12.07;9.55;;;15.90;77.50;;;;;;5049074;28;20021;-71
2022/06/01 07:23:00;;;;;;;9.57;8.18;;;15.80;77.50;;;;;;5050016;28;20021;-71
2022/06/01 07:25:28;;;;;;;9.48;7.65;;;15.80;77.10;;;;;;5042836;28;20025;-72
2022/06/01 07:27:54;;;;;;;12.80;7.22;;;15.90;76.90;;;;;;5042409;28;20029;-72
2022/06/01 07:30:20;;;;;;;10.48;7.47;;;15.90;77.00;;;;;;5040771;28;20116;-72
2022/06/01 07:32:47;;;;;;;10.40;7.97;;;16.10;77.70;;;;;;5042132;28;20021;-72
2022/06/01 07:35:17;;;;;;;10.43;6.88;;;16.20;77.10;;;;;;5041612;28;20017;-72
2022/06/01 07:43:16;;;;;;;9.85;6.50;;;16.60;74.00;;;;;;5044109;28;20662;-71
2022/06/01 07:45:45;;;;;;;8.63;5.72;;;16.50;73.20;;;;;;5043542;28;20028;-72
2022/06/01 07:48:11;;;;;;;9.63;5.93;;;16.60;74.60;;;;;;5049056;28;20029;-73
2022/06/01 07:50:37;;;;;;;5.68;3.95;;;16.60;74.10;;;;;;5048956;28;20035;-72
2022/06/01 07:53:06;;;;;;;8.98;6.13;;;16.70;74.00;;;;;;5047076;28;20029;-73
2022/06/01 07:55:31;;;;;;;8.82;6.00;;;16.70;72.80;;;;;;5048436;28;20029;-73
2022/06/01 07:57:57;;;;;;;7.80;5.53;;;16.70;72.70;;;;;;5049216;28;20029;-73
2022/06/01 08:00:24;;;;;;;9.95;5.57;;;16.80;73.60;;;;;;5049983;28;20017;-72
2022/06/01 08:02:49;;;;;;;8.77;5.35;;;16.80;71.70;;;;;;5049701;28;20017;-72
2022/06/01 08:05:18;;;;;;;7.82;5.18;;;16.80;70.30;;;;;;5048951;28;20056;-72
2022/06/01 08:07:43;;;;;;;10.13;5.80;;;17.00;70.00;;;;;;5048645;28;20306;-72
2022/06/01 08:10:13;;;;;;;7.18;5.05;;;17.10;68.50;;;;;;5049473;28;20444;-72
2022/06/01 08:15:24;;;;;;;14.43;6.60;;;16.70;69.50;;;;;;5048836;28;20040;-72
2022/06/01 08:17:49;;;;;;;8.68;5.53;;;16.60;72.20;;;;;;5049328;28;20029;-72
2022/06/01 08:20:16;;;;;;;8.30;6.80;;;16.50;71.80;;;;;;5049128;28;20074;-72
2022/06/01 08:22:42;;;;;;;11.77;7.40;;;16.40;72.20;;;;;;5048638;28;20028;-71
2022/06/01 08:25:11;;;;;;;11.15;5.97;;;16.50;72.90;;;;;;5049522;28;20524;-72
2022/06/01 08:27:37;;;;;;;7.60;5.47;;;16.70;69.50;;;;;;5049322;28;20063;-72
2022/06/01 08:30:03;;;;;;;6.97;4.85;;;16.90;69.30;;;;;;5048640;28;20025;-71
2022/06/01 08:32:29;;;;;;;6.90;4.18;;;17.10;65.40;;;;;;5048074;28;20021;-71
2022/06/01 08:34:54;;;;;;;9.60;5.22;;;17.30;65.40;;;;;;5048772;28;20074;-71
2022/06/01 08:37:20;;;;;;;6.55;4.40;;;17.60;64.90;;;;;;5047763;28;20584;-72
2022/06/01 08:39:47;;;;;;;7.80;4.85;;;17.80;65.00;;;;;;5047395;28;20141;-71
2022/06/01 08:42:16;;;;;;;5.38;3.63;;;18.00;64.70;;;;;;5048581;28;20103;-72
2022/06/01 08:44:46;;;;;;;6.23;4.03;;;18.10;63.50;;;;;;5048751;28;20025;-72
2022/06/01 08:47:15;;;;;;;;;;;18.10;62.80;;;;;;5050043;28;20037;-72
2022/06/01 08:49:40;;;;;;;5.50;3.55;;;18.20;64.10;;;;;;5048593;28;20367;-71
2022/06/01 08:52:07;;;;;;;7.80;4.72;;;18.50;63.20;;;;;;5048796;28;20021;-72
2022/06/01 08:54:33;;;;;;;8.00;4.22;;;18.50;62.00;;;;;;5048650;28;20059;-72
2022/06/01 08:57:01;;;;;;;7.38;4.18;;;18.50;60.50;;;;;;5047762;28;20060;-71
2022/06/01 08:59:30;;;;;;;6.40;4.05;;;18.40;61.50;;;;;;5048624;28;20107;-71
2022/06/01 09:01:59;;;;;;;6.22;3.72;;;18.40;63.30;;;;;;5048546;28;20029;-71
2022/06/01 09:04:55;;;;;;;7.93;3.43;;;18.70;61.70;;;;;;5047845;28;20017;-71
2022/06/01 09:07:36;;;;;;;7.80;4.18;;;19.00;60.50;;;;;;5048935;28;20304;-71
2022/06/01 09:10:22;;;;;;;5.25;3.35;;;19.20;58.00;;;;;;5047508;28;20115;-72
2022/06/01 09:12:55;;;;;;;4.70;2.90;;;19.50;59.90;;;;;;5028872;28;20105;-72
2022/06/01 09:15:26;;;;;;;6.72;3.20;;;19.80;58.70;;;;;;5043750;28;20029;-72
2022/06/01 09:17:55;;;;;;;6.13;2.70;;;20.00;57.50;;;;;;5038626;28;20087;-72
2022/06/01 09:23:15;;;;;;;4.93;3.13;;;19.80;56.50;;;;;;5039611;28;20056;-72
2022/06/01 09:25:51;;;;;;;7.20;3.58;;;19.70;58.30;;;;;;5041520;28;20345;-72
2022/06/01 09:28:40;;;;;;;5.75;3.10;;;19.70;57.60;;;;;;5035720;28;20056;-71
2022/06/01 09:31:22;;;;;;;7.53;3.33;;;19.60;56.80;;;;;;5041004;28;20049;-72
2022/06/01 09:33:49;;;;;;;4.95;3.20;;;19.40;58.50;;;;;;5037223;28;20443;-72
2022/06/01 09:36:25;;;;;;;5.07;2.85;;;19.40;56.90;;;;;;5044419;28;20033;-71
2022/06/01 09:38:54;;;;;;;5.07;2.80;;;19.30;58.00;;;;;;5048442;28;20445;-70
2022/06/01 09:41:20;;;;;;;5.00;2.85;;;19.40;56.70;;;;;;5046929;28;20032;-71
2022/06/01 09:44:01;;;;;;;7.25;4.03;;;19.60;56.50;;;;;;5048336;28;20037;-71
2022/06/01 09:46:34;;;;;;;6.55;4.53;;;19.70;56.40;;;;;;5044009;28;20079;-71
2022/06/01 09:49:26;;;;;;;6.63;3.72;;;19.80;55.60;;;;;;5027083;28;20542;-72
2022/06/01 09:51:59;;;;;;;7.30;3.83;;;19.80;55.90;;;;;;5040589;28;20033;-72
2022/06/01 09:54:31;;;;;;;5.53;3.42;;;19.70;56.20;;;;;;5045952;28;20398;-72
2022/06/01 09:57:14;;;;;;;6.10;3.65;;;19.40;56.20;;;;;;5047855;28;20033;-72
2022/06/01 10:08:09;;;;;;;3.85;1.88;;;18.20;57.30;;;;;;5046334;28;20576;-72
2022/06/01 10:10:36;;;;;;;5.97;1.80;;;18.10;56.20;;;;;;5047289;28;20017;-72
2022/06/01 10:13:02;;;;;;;4.07;1.92;;;18.20;55.30;;;;;;5047798;28;20033;-72
2022/06/01 10:15:51;;;;;;;1.83;1.35;;;18.30;54.10;;;;;;5049761;28;20021;-72
2022/06/01 10:18:21;;;;;;;3.92;2.15;;;18.50;54.60;;;;;;5048066;28;20033;-72
2022/06/01 10:20:58;;;;;;;3.85;2.47;;;18.80;53.70;;;;;;5050640;28;20029;-72
2022/06/01 10:23:48;;;;;;;3.05;2.13;;;19.00;54.80;;;;;;5036741;28;20067;-72
2022/06/01 10:26:29;;;;;;;3.95;2.75;;;19.50;54.60;;;;;;5050318;28;20091;-71
2022/06/01 10:29:02;;;;;;;4.55;2.50;;;19.80;53.10;;;;;;5051081;28;20033;-72
2022/06/01 10:31:54;;;;;;;5.70;3.08;;;20.20;53.70;;;;;;5050895;28;20112;-72
2022/06/01 10:34:46;;;;;;;5.95;2.33;;;20.60;52.70;;;;;;5041308;28;20102;-71
2022/06/01 10:37:30;;;;;;;3.85;2.30;;;20.80;49.50;;;;;;5050966;28;20395;-72
2022/06/01 10:40:11;;;;;;;4.88;2.47;;;21.00;50.10;;;;;;5046190;28;20029;-70
2022/06/01 10:45:47;;;;;;;4.03;1.63;;;21.20;49.80;;;;;;5048874;28;20036;-72
2022/06/01 10:48:44;;;;;;;4.47;2.13;;;21.20;48.00;;;;;;5050705;28;20017;-72
2022/06/01 10:51:15;;;;;;;6.20;2.70;;;20.80;50.40;;;;;;5029427;28;20041;-74
2022/06/01 10:53:48;;;;;;;5.57;2.40;;;20.70;50.70;;;;;;5045915;28;20148;-72
2022/06/01 10:56:17;;;;;;;6.80;3.38;;;20.30;52.70;;;;;;5049916;28;20039;-73
2022/06/01 10:58:43;;;;;;;7.28;3.63;;;19.90;53.80;;;;;;5050157;28;20112;-73
2022/06/01 11:01:19;;;;;;;6.75;3.55;;;19.40;55.60;;;;;;5050321;28;20158;-71
2022/06/01 11:04:17;;;;;;;4.50;2.92;;;19.10;57.20;;;;;;5050347;28;20028;-73
2022/06/01 11:07:06;;;;;;;5.13;3.05;;;18.80;58.30;;;;;;5030197;28;20116;-72
2022/06/01 11:09:40;;;;;;;7.70;3.58;;;18.50;59.60;;;;;;5047814;28;20072;-72
2022/06/01 11:12:45;;;;;;;7.32;3.15;;;18.50;59.40;;;;;;5050201;28;20025;-72
2022/06/01 11:15:34;;;;;;;10.07;2.80;;;18.50;59.70;;;;;;5047317;28;20091;-73
2022/06/01 11:18:13;;;;;;;5.38;2.75;;;18.80;59.00;;;;;;5048684;28;20249;-73
2022/06/01 11:21:17;;;;;;;2.15;1.30;;;19.00;57.80;;;;;;5050582;28;20024;-71
2022/06/01 11:23:54;;;;;;;3.15;1.42;;;18.90;55.20;;;;;;4998262;28;20048;-73
2022/06/01 11:26:26;;;;;;;1.80;1.05;;;18.80;56.10;;;;;;5047626;28;20021;-72
2022/06/01 11:29:27;;;;;;;2.63;0.80;;;18.80;55.30;;;;;;5049456;28;20021;-72
2022/06/01 11:31:56;;;;;;;3.80;1.60;;;18.50;54.90;;;;;;5035755;28;20032;-72
2022/06/01 11:34:41;;;;;;;3.30;1.63;;;18.50;56.50;;;;;;5049460;28;20052;-72
2022/06/01 11:37:27;;;;;;;2.67;1.50;;;18.70;58.60;;;;;;5049960;28;20037;-72
2022/06/01 11:40:13;;;;;;;4.80;2.55;;;18.80;58.50;;;;;;5049598;28;20458;-71
2022/06/01 11:42:55;;;;;;;3.67;1.90;;;18.90;57.70;;;;;;5049236;28;20025;-72
2022/06/01 11:45:27;;;;;;;7.53;4.07;;;18.90;58.90;;;;;;5049052;28;20045;-72
2022/06/01 11:47:56;;;;;;;6.07;3.38;;;18.90;58.70;;;;;;5049772;28;20021;-74
2022/06/01 11:50:46;;;;;;;6.68;4.03;;;18.90;60.60;;;;;;5049450;28;20017;-72
2022/06/01 11:53:13;;;;;;;;;;;19.20;59.70;;;;;;5032852;28;20026;-72
2022/06/01 11:55:38;;;;;;;8.25;4.22;;;19.50;59.20;;;;;;5042363;28;19984;-71
2022/06/01 11:58:18;;;;;;;7.93;4.03;;;19.60;58.60;;;;;;5038469;28;20136;-72
2022/06/01 12:00:44;;;;;;;7.55;3.53;;;19.80;58.60;;;;;;5041550;28;20590;-72
2022/06/01 12:03:15;;;;;;;7.75;4.55;;;19.90;59.40;;;;;;5039617;28;20013;-71
2022/06/01 12:06:05;;;;;;;6.75;4.70;;;19.80;59.20;;;;;;5044871;28;20074;-72
2022/06/01 12:08:46;;;;;;;6.38;4.25;;;19.60;59.40;;;;;;5039413;28;20412;-72
2022/06/01 12:11:45;;;;;;;8.57;4.57;;;19.50;59.90;;;;;;5042809;28;20329;-72
2022/06/01 12:14:31;;;;;;;4.80;3.35;;;19.40;60.40;;;;;;5036230;28;20039;-72
2022/06/01 12:17:17;;;;;;;5.80;3.83;;;19.10;61.30;;;;;;5041962;28;20032;-71
2022/06/01 12:19:47;;;;;;;8.10;4.68;;;19.00;61.60;;;;;;5039104;28;20013;-73
2022/06/01 12:28:43;;;;;;;3.75;1.60;;;19.50;62.60;;;;;;5049360;28;20044;-71
2022/06/01 12:31:16;;;;;;;3.20;1.15;;;19.90;53.90;;;;;;5038635;28;20044;-71
2022/06/01 12:34:03;;;;;;;2.45;1.13;;;20.10;53.60;;;;;;5050058;28;20097;-72
2022/06/01 12:36:41;;;;;;;3.75;0.90;;;20.30;52.70;;;;;;5045101;28;20029;-72
2022/06/01 12:39:28;;;;;;;3.58;1.10;;;20.20;51.30;;;;;;5044125;28;20037;-71
2022/06/01 12:42:01;;;;;;;5.80;1.40;;;20.30;52.40;;;;;;5041292;28;20021;-72
2022/06/01 12:44:27;;;;;;;1.55;0.70;;;20.30;49.50;;;;;;5039456;28;20057;-71
2022/06/01 12:46:53;;;;;;;4.20;1.35;;;20.30;48.50;;;;;;5039311;28;20032;-71
2022/06/01 12:49:36;;;;;;;1.80;0.70;;;20.40;50.50;;;;;;5038509;28;20021;-71
2022/06/01 12:52:05;;;;;;;1.10;0.50;;;20.60;50.10;;;;;;5041088;28;20017;-72
2022/06/01 12:54:37;;;;;;;4.90;1.23;;;21.00;47.20;;;;;;5038753;28;20071;-73
2022/06/01 12:57:05;;;;;;;3.58;0.68;;;21.40;48.70;;;;;;5041535;28;20480;-71
2022/06/01 12:59:34;;;;;;;5.68;1.00;;;21.40;46.50;;;;;;5039217;28;20071;-73
2022/06/01 13:02:04;;;;;;;0.90;0.60;;;21.60;45.40;;;;;;5040116;28;20484;-70
2022/06/01 13:04:30;;;;;;;2.08;0.82;;;21.30;49.70;;;;;;5036978;28;20754;-71
2022/06/01 13:06:57;;;;;;;4.60;1.00;;;21.20;48.00;;;;;;5040056;28;20047;-72
2022/06/01 13:09:28;;;;;;;3.83;1.08;;;21.00;47.00;;;;;;5040521;28;20583;-72
2022/06/01 13:11:56;;;;;;;2.53;0.90;;;20.90;46.90;;;;;;5044043;28;20351;-72
2022/06/01 13:14:25;;;;;;;2.15;1.00;;;21.00;47.10;;;;;;5048641;28;20079;-72
2022/06/01 13:16:51;;;;;;;1.17;0.60;;;21.00;44.80;;;;;;5047227;28;20029;-72
2022/06/01 13:19:27;;;;;;;2.00;0.80;;;21.10;48.80;;;;;;5048156;28;20021;-72
2022/06/01 13:22:01;;;;;;;1.40;0.77;;;21.20;46.00;;;;;;5048240;28;20039;-73
2022/06/01 13:24:34;;;;;;;2.65;0.98;;;21.10;47.10;;;;;;5043581;28;20570;-72
2022/06/01 13:27:00;;;;;;;2.63;1.00;;;21.00;46.60;;;;;;5047405;28;20484;-72
2022/06/01 13:29:31;;;;;;;2.17;1.00;;;20.80;46.30;;;;;;5046594;28;20481;-72
2022/06/01 13:32:01;;;;;;;6.05;0.82;;;20.80;48.70;;;;;;5046606;28;20490;-71
2022/06/01 13:34:38;;;;;;;2.53;1.08;;;20.90;49.50;;;;;;5047479;28;20507;-71